CYGK

Kingston Norman Rogers Airport

Kingston, Ontario, Canada
METAR CYGK 180400Z 03006KT 15SM FEW020 OVC200 M13/M16 A3017 RMK SC1CI7 LAST STFD OBS/NEXT 181100 UTC SLP225
Observed Flight Rules
Dec-18 @ 04:00 UTC (5 hours ago) Visual Flight Rules
Wind Visibility Clouds
30° at 6 knots 15 miles
  • Few at 2,000' AGL
  • Overcast at 20,000' AGL
Temperatures Readings
Current -13°C / 9°F
Dewpoint -16°C / 3°F
Humidity 78%
Altimeter 30.17" Hg
Pressure 1022.5 hPa
Elevation 93
METAR CYGK 180400Z 03006KT 15SM FEW020 OVC200 M13/M16 A3017 RMK SC1CI7 LAST STFD OBS/NEXT 181100 UTC SLP225
Observed Flight Rules
Dec-18 @ 04:00 UTC
(5 hours ago)
VFR
Wind Visibility
30° at 6 knots 15 miles
Clouds
  • Few at 2,000' AGL
  • Overcast at 20,000' AGL
Temperature Dewpoint
-13°C / 9°F -16°C / 3°F
Humidity Altimeter Pressure
78% 30.17" Hg 1022.5 hPa